createdAt,value
2018-11-12T00:02:22.150Z,15.20
2018-11-12T00:07:25.257Z,17.03
2018-11-12T00:12:28.363Z,15.57
2018-11-12T00:17:31.497Z,17.83
2018-11-12T00:22:34.775Z,17.83
2018-11-12T00:27:38.178Z,17.47
2018-11-12T00:32:41.706Z,16.53
2018-11-12T00:37:45.425Z,16.07
2018-11-12T00:42:48.517Z,16.23
2018-11-12T00:47:51.586Z,17.23
2018-11-12T00:52:54.675Z,17.17
2018-11-12T00:57:57.758Z,18.50
2018-11-12T01:03:00.849Z,16.97
2018-11-12T01:08:04.088Z,16.97
2018-11-12T01:13:07.170Z,19.10
2018-11-12T01:18:10.298Z,20.43
2018-11-12T01:23:13.424Z,15.97
2018-11-12T01:28:16.531Z,17.20
2018-11-12T01:33:19.602Z,18.67
2018-11-12T01:38:22.682Z,18.00
2018-11-12T01:43:25.754Z,19.60
2018-11-12T01:48:28.858Z,17.07
2018-11-12T01:53:31.965Z,18.03
2018-11-12T01:58:35.041Z,17.67
2018-11-12T02:03:38.157Z,20.63
2018-11-12T02:08:41.336Z,19.80
2018-11-12T02:13:44.437Z,18.97
2018-11-12T02:18:47.521Z,17.90
2018-11-12T02:23:50.641Z,19.07
2018-11-12T02:28:53.745Z,20.53
2018-11-12T02:33:56.857Z,19.77
2018-11-12T02:38:59.962Z,18.63
2018-11-12T02:44:03.111Z,20.63
2018-11-12T02:49:06.618Z,17.87
2018-11-12T02:54:09.761Z,19.23
2018-11-12T02:59:12.861Z,20.20
2018-11-12T03:04:16.000Z,17.63
2018-11-12T03:09:19.158Z,17.73
2018-11-12T03:14:23.822Z,19.07
2018-11-12T03:19:26.931Z,18.33
2018-11-12T03:24:30.077Z,20.87
2018-11-12T03:29:33.305Z,19.17
2018-11-12T03:34:36.466Z,20.97
2018-11-12T03:39:39.640Z,18.90
2018-11-12T03:44:42.769Z,17.33
2018-11-12T03:49:45.908Z,22.10
2018-11-12T03:54:49.169Z,19.53
2018-11-12T03:59:52.300Z,19.97
2018-11-12T04:04:55.508Z,19.63
2018-11-12T04:09:58.680Z,21.63
2018-11-12T04:15:01.815Z,18.90
2018-11-12T04:20:05.434Z,17.63
2018-11-12T04:25:09.720Z,19.13
2018-11-12T04:30:14.378Z,16.73
2018-11-12T04:35:17.492Z,19.73
2018-11-12T04:40:20.826Z,20.00
2018-11-12T04:45:24.759Z,19.07
2018-11-12T04:50:28.642Z,18.97
2018-11-12T04:55:31.797Z,18.03
2018-11-12T05:00:34.886Z,18.97
2018-11-12T05:05:38.015Z,20.23
2018-11-12T05:10:41.126Z,23.30
2018-11-12T05:15:44.230Z,21.57
2018-11-12T05:20:47.326Z,20.80
2018-11-12T05:25:50.526Z,22.80
2018-11-12T05:30:53.672Z,19.43
2018-11-12T05:35:56.795Z,19.27
2018-11-12T05:40:59.906Z,20.57
2018-11-12T05:46:03.086Z,19.40
2018-11-12T05:51:06.218Z,19.93
2018-11-12T05:56:09.313Z,20.43
2018-11-12T06:01:15.043Z,19.10
2018-11-12T06:06:18.164Z,20.10
2018-11-12T06:11:22.045Z,18.53
2018-11-12T06:16:25.238Z,19.07
2018-11-12T06:21:28.558Z,19.13
2018-11-12T06:26:31.743Z,19.40
2018-11-12T06:31:34.922Z,20.17
2018-11-12T06:36:38.219Z,20.90
2018-11-12T06:41:41.305Z,19.50
2018-11-12T06:46:44.396Z,16.00
2018-11-12T06:51:47.512Z,23.17
2018-11-12T06:56:50.650Z,17.87
2018-11-12T07:01:53.738Z,18.40
2018-11-12T07:06:56.943Z,19.90
2018-11-12T07:12:00.042Z,21.40
2018-11-12T07:17:03.197Z,21.80
2018-11-12T07:22:06.341Z,20.47
2018-11-12T07:27:09.465Z,21.30
2018-11-12T07:32:13.867Z,19.90
2018-11-12T07:37:17.008Z,18.60
2018-11-12T07:42:20.406Z,17.93
2018-11-12T07:47:23.542Z,19.83
2018-11-12T07:52:26.671Z,21.43
2018-11-12T07:57:29.813Z,22.97
2018-11-12T08:02:33.022Z,20.37
2018-11-12T08:07:36.314Z,20.03
2018-11-12T08:12:39.575Z,22.87
2018-11-12T08:17:43.051Z,23.27
2018-11-12T08:22:47.447Z,21.10
2018-11-12T08:27:50.831Z,25.93
2018-11-12T08:32:55.286Z,18.00
2018-11-12T08:37:58.673Z,23.87
2018-11-12T08:43:01.811Z,21.00
2018-11-12T08:48:05.146Z,22.37
2018-11-12T08:53:08.267Z,19.27
2018-11-12T08:58:12.158Z,21.50
2018-11-12T09:03:14.549Z,22.00
2018-11-12T09:08:17.661Z,21.30
2018-11-12T09:13:20.806Z,17.50
2018-11-12T09:18:23.938Z,21.83
2018-11-12T09:23:27.068Z,22.93
2018-11-12T09:28:30.188Z,23.43
2018-11-12T09:33:33.354Z,22.10
2018-11-12T09:38:36.584Z,21.50
2018-11-12T09:43:39.646Z,20.83
2018-11-12T09:48:42.862Z,21.77
2018-11-12T09:53:46.016Z,20.40
2018-11-12T09:58:49.040Z,22.63
2018-11-12T10:03:53.280Z,23.43
2018-11-12T10:08:57.487Z,19.23
2018-11-12T10:14:01.823Z,17.20
2018-11-12T10:19:01.571Z,20.67
2018-11-12T10:24:04.975Z,18.50
2018-11-12T10:29:09.138Z,21.70
2018-11-12T10:34:12.425Z,19.10
2018-11-12T10:39:15.592Z,16.13
2018-11-12T10:44:18.912Z,16.20
2018-11-12T10:49:22.166Z,16.47
2018-11-12T10:54:25.480Z,13.60
2018-11-12T10:59:28.669Z,15.73
2018-11-12T11:04:31.927Z,12.63
2018-11-12T11:09:35.033Z,13.73
2018-11-12T11:14:38.179Z,14.30
2018-11-12T11:19:41.346Z,11.47
2018-11-12T11:24:44.421Z,12.60
2018-11-12T11:29:47.540Z,13.10
2018-11-12T11:34:50.806Z,13.87
2018-11-12T11:39:53.965Z,12.27
2018-11-12T11:44:57.123Z,13.90
2018-11-12T11:50:00.282Z,16.07
2018-11-12T11:55:03.490Z,14.83
2018-11-12T12:00:09.758Z,15.00
2018-11-12T12:05:13.944Z,17.40
2018-11-12T12:10:17.343Z,15.27
2018-11-12T12:15:21.383Z,15.47
2018-11-12T12:20:25.600Z,14.13
2018-11-12T12:25:28.756Z,15.43
2018-11-12T12:30:32.195Z,16.40
2018-11-12T12:35:35.369Z,17.67
2018-11-12T12:40:38.474Z,12.53
2018-11-12T12:45:41.740Z,13.53
2018-11-12T12:50:44.749Z,14.03
2018-11-12T12:55:47.897Z,13.90
2018-11-12T13:00:51.039Z,12.73
2018-11-12T13:05:54.175Z,11.30
2018-11-12T13:10:57.307Z,13.17
2018-11-12T13:16:00.463Z,12.50
2018-11-12T13:21:03.621Z,11.93
2018-11-12T13:26:06.748Z,11.00
2018-11-12T13:31:09.871Z,13.50
2018-11-12T13:36:13.002Z,11.63
2018-11-12T13:41:16.124Z,20.77
2018-11-12T13:46:19.271Z,11.07
2018-11-12T13:51:22.423Z,12.67
2018-11-12T13:56:25.600Z,12.60
2018-11-12T14:01:28.722Z,16.33
2018-11-12T14:06:31.826Z,12.33
2018-11-12T14:11:34.935Z,12.43
2018-11-12T14:16:38.075Z,11.30
2018-11-12T14:21:41.503Z,13.37
2018-11-12T14:26:44.375Z,12.10
2018-11-12T14:31:48.047Z,11.73
2018-11-12T14:36:51.395Z,12.70
2018-11-12T14:41:54.545Z,18.27
2018-11-12T14:46:58.023Z,14.27
2018-11-12T14:52:16.195Z,15.53
2018-11-12T14:57:19.316Z,14.23
2018-11-12T15:02:46.681Z,16.77
2018-11-12T15:07:50.125Z,30.00
2018-11-12T15:12:53.223Z,15.23
2018-11-12T15:18:03.927Z,32.43
2018-11-12T15:23:07.141Z,15.13
2018-11-12T15:28:10.228Z,21.23
2018-11-12T15:33:14.517Z,16.00
2018-11-12T15:38:17.783Z,17.63
2018-11-12T15:43:31.125Z,22.40
2018-11-12T15:48:34.443Z,17.07
2018-11-12T15:53:37.590Z,14.50
2018-11-12T15:58:41.947Z,12.97
2018-11-12T16:03:45.286Z,15.03
2018-11-12T16:08:48.434Z,14.37
2018-11-12T16:13:52.709Z,15.70
2018-11-12T16:18:55.822Z,15.20
2018-11-12T16:23:59.044Z,14.07
2018-11-12T16:29:02.207Z,17.13
2018-11-12T16:34:05.352Z,15.70
2018-11-12T16:39:09.700Z,14.10
2018-11-12T16:44:12.951Z,18.27
2018-11-12T16:49:16.083Z,15.37
2018-11-12T16:54:19.219Z,18.10
2018-11-12T16:59:22.368Z,17.07
2018-11-12T17:04:31.814Z,16.60
2018-11-12T17:09:34.974Z,17.33
2018-11-12T17:14:38.110Z,17.47
2018-11-12T17:19:41.274Z,17.13
2018-11-12T17:24:44.482Z,16.50
2018-11-12T17:29:47.596Z,25.37
2018-11-12T17:34:50.743Z,18.90
2018-11-12T17:39:53.887Z,16.30
2018-11-12T17:44:57.065Z,17.67
2018-11-12T17:50:00.175Z,15.20
2018-11-12T17:55:03.429Z,15.87
2018-11-12T18:00:19.302Z,14.57
2018-11-12T18:05:22.459Z,14.83
2018-11-12T18:10:26.028Z,15.83
2018-11-12T18:15:29.157Z,15.70
2018-11-12T18:20:32.241Z,16.93
2018-11-12T18:25:35.363Z,15.00
2018-11-12T18:30:38.773Z,13.73
2018-11-12T18:35:41.720Z,16.47
2018-11-12T18:40:44.847Z,14.27
2018-11-12T18:45:52.130Z,14.87
2018-11-12T18:50:55.956Z,15.10
2018-11-12T18:55:59.090Z,16.13
2018-11-12T19:01:02.254Z,12.40
2018-11-12T19:06:25.142Z,15.83
2018-11-12T19:11:28.279Z,15.60
2018-11-12T19:16:31.507Z,12.83
2018-11-12T19:21:34.651Z,14.03
2018-11-12T19:26:37.794Z,14.03
2018-11-12T19:31:41.187Z,12.43
2018-11-12T19:36:44.294Z,13.80
2018-11-12T19:41:47.575Z,13.33
2018-11-12T19:46:50.775Z,12.00
2018-11-12T19:51:54.052Z,12.50
2018-11-12T19:56:58.230Z,12.77
2018-11-12T20:02:13.943Z,13.23
2018-11-12T20:12:52.140Z,14.30
2018-11-12T20:17:56.120Z,13.00
2018-11-12T20:23:02.670Z,13.77
2018-11-12T20:28:05.956Z,13.43
2018-11-12T20:33:09.251Z,13.33
2018-11-12T20:38:12.592Z,14.20
2018-11-12T20:43:15.921Z,13.07
2018-11-12T20:48:19.063Z,12.77
2018-11-12T20:53:22.222Z,12.93
2018-11-12T20:58:25.329Z,13.63
2018-11-12T21:03:28.421Z,12.43
2018-11-12T21:08:31.562Z,18.43
2018-11-12T21:13:34.666Z,13.23
2018-11-12T21:18:37.753Z,13.90
2018-11-12T21:23:40.879Z,13.33
2018-11-12T21:28:43.999Z,14.20
2018-11-12T21:33:47.104Z,13.10
2018-11-12T21:38:50.191Z,13.67
2018-11-12T21:43:53.416Z,14.73
2018-11-12T21:48:56.470Z,16.80
2018-11-12T21:53:59.646Z,12.50
2018-11-12T21:59:02.760Z,13.17
2018-11-12T22:04:05.866Z,12.97
2018-11-12T22:09:10.146Z,14.13
2018-11-12T22:14:13.265Z,12.40
2018-11-12T22:19:16.424Z,14.27
2018-11-12T22:24:19.513Z,12.87
2018-11-12T22:29:22.631Z,12.40
2018-11-12T22:34:25.786Z,12.30
2018-11-12T22:39:28.907Z,13.60
2018-11-12T22:44:32.135Z,11.53
2018-11-12T22:49:35.257Z,12.43
2018-11-12T22:54:38.370Z,11.80
2018-11-12T22:59:47.255Z,12.70
2018-11-12T23:04:50.339Z,11.60
2018-11-12T23:09:53.439Z,13.10
2018-11-12T23:14:56.568Z,13.33
2018-11-12T23:19:59.675Z,14.80
2018-11-12T23:25:02.795Z,12.40
2018-11-12T23:30:07.175Z,12.53
2018-11-12T23:35:25.279Z,17.00
2018-11-12T23:40:28.371Z,14.33
2018-11-12T23:45:31.478Z,13.77
2018-11-12T23:50:34.585Z,19.70
2018-11-12T23:55:37.713Z,20.53
